Time;durP1;ratioP1;P1;durP2;ratioP2;P2;SDS_P1;SDS_P2;PMS_P1;PMS_P2;Temp;Humidity;BMP_temperature;BMP_pressure;BME280_temperature;BME280_humidity;BME280_pressure;Samples;Min_cycle;Max_cycle;Signal;HPM_P1;HPM_P2
2022/06/14 00:01:08;;;;;;;2.53;1.00;;;;;;;;;;5092663;28;20495;-59
2022/06/14 00:03:36;;;;;;;3.58;1.08;;;23.40;50.70;;;;;;5092305;28;20087;-59
2022/06/14 00:06:11;;;;;;;3.17;1.17;;;23.40;86.60;;;;;;5092465;28;20059;-59
2022/06/14 00:08:38;;;;;;;2.70;1.00;;;;;;;;;;5092579;28;20426;-59
2022/06/14 00:11:13;;;;;;;3.33;1.10;;;23.20;59.50;;;;;;5092572;28;20032;-59
2022/06/14 00:13:40;;;;;;;2.30;0.77;;;;;;;;;;5092986;28;20422;-58
2022/06/14 00:16:06;;;;;;;1.63;0.60;;;23.40;50.70;;;;;;5092476;28;20390;-55
2022/06/14 00:18:32;;;;;;;2.17;1.05;;;23.30;87.20;;;;;;5092407;28;20024;-56
2022/06/14 00:20:58;;;;;;;1.52;0.70;;;;;;;;;;5092274;28;20382;-55
2022/06/14 00:23:24;;;;;;;1.63;0.68;;;;;;;;;;5092470;28;20103;-56
2022/06/14 00:25:55;;;;;;;2.83;1.00;;;23.40;66.70;;;;;;5092203;28;20035;-55
2022/06/14 00:28:23;;;;;;;2.30;0.75;;;23.50;88.20;;;;;;5092154;28;20120;-56
2022/06/14 00:30:52;;;;;;;2.38;0.77;;;23.00;87.10;;;;;;5092475;28;20407;-56
2022/06/14 00:33:18;;;;;;;2.47;0.93;;;;;;;;;;5092503;28;20027;-59
2022/06/14 00:35:44;;;;;;;3.72;1.00;;;23.40;62.40;;;;;;5092181;28;20503;-59
2022/06/14 00:38:11;;;;;;;3.15;0.80;;;23.40;61.30;;;;;;5092128;28;20032;-58
2022/06/14 00:40:39;;;;;;;1.52;0.63;;;23.30;51.90;;;;;;5092118;28;20032;-59
2022/06/14 00:43:15;;;;;;;2.67;1.05;;;23.30;51.70;;;;;;5092026;28;20028;-58
2022/06/14 00:45:40;;;;;;;2.55;1.10;;;23.50;88.30;;;;;;5092235;28;20028;-59
2022/06/14 00:48:06;;;;;;;2.00;0.75;;;23.40;87.80;;;;;;5092255;28;20466;-58
2022/06/14 00:50:40;;;;;;;2.20;0.90;;;23.10;79.90;;;;;;5091959;28;20038;-59
2022/06/14 00:53:09;;;;;;;2.70;0.90;;;23.10;53.90;;;;;;5092079;28;20034;-55
2022/06/14 00:55:46;;;;;;;1.40;0.63;;;23.30;48.40;;;;;;5092006;28;20020;-56
2022/06/14 00:58:18;;;;;;;2.00;0.90;;;23.10;51.80;;;;;;5091922;28;20111;-55
2022/06/14 01:00:59;;;;;;;2.28;0.63;;;23.50;87.70;;;;;;5091759;28;20206;-56
2022/06/14 01:03:30;;;;;;;2.85;0.95;;;23.50;87.40;;;;;;5091627;28;20039;-55
2022/06/14 01:06:05;;;;;;;2.17;0.93;;;23.20;51.80;;;;;;5092219;28;20051;-55
2022/06/14 01:08:51;;;;;;;2.95;1.38;;;23.30;88.10;;;;;;5091820;28;20059;-55
2022/06/14 01:11:45;;;;;;;1.70;0.80;;;23.20;48.40;;;;;;5091012;28;20032;-59
2022/06/14 01:14:21;;;;;;;1.90;1.00;;;23.10;52.20;;;;;;5092019;28;20028;-59
2022/06/14 01:16:46;;;;;;;1.73;0.98;;;23.30;88.00;;;;;;5091987;28;20021;-59
2022/06/14 01:19:18;;;;;;;3.00;1.10;;;23.40;88.10;;;;;;5091656;28;20386;-59
2022/06/14 01:21:53;;;;;;;3.63;1.10;;;23.20;52.10;;;;;;5091892;28;20390;-58
2022/06/14 01:24:21;;;;;;;3.70;1.15;;;23.10;51.90;;;;;;5091766;28;20025;-59
2022/06/14 01:26:48;;;;;;;3.17;0.60;;;23.50;88.20;;;;;;5091655;28;20042;-59
2022/06/14 01:29:14;;;;;;;1.95;0.90;;;;;;;;;;5091625;28;20028;-59
2022/06/14 01:31:40;;;;;;;4.28;1.00;;;23.10;88.70;;;;;;5092730;28;20481;-59
2022/06/14 01:34:08;;;;;;;3.38;0.98;;;23.40;87.60;;;;;;5095461;28;20110;-58
2022/06/14 01:36:38;;;;;;;0.90;0.50;;;23.10;87.60;;;;;;5095431;28;20466;-59
2022/06/14 01:39:08;;;;;;;3.53;1.33;;;23.10;52.10;;;;;;5095659;28;20077;-59
2022/06/14 01:41:54;;;;;;;3.20;0.75;;;23.30;86.50;;;;;;5095343;28;20028;-59
2022/06/14 01:44:53;;;;;;;2.08;0.75;;;23.30;66.00;;;;;;5095331;28;20032;-59
2022/06/14 01:47:57;;;;;;;1.58;0.75;;;22.80;69.50;;;;;;5095364;28;20032;-59
2022/06/14 01:53:46;;;;;;;2.15;0.70;;;23.10;51.20;;;;;;5095187;28;20085;-59
2022/06/14 01:56:34;;;;;;;4.30;1.02;;;22.60;87.50;;;;;;5095128;28;20024;-59
2022/06/14 01:59:08;;;;;;;1.45;0.85;;;23.20;52.20;;;;;;5094862;28;20063;-59
2022/06/14 02:01:41;;;;;;;3.67;0.90;;;23.00;51.90;;;;;;5095187;28;20103;-59
2022/06/14 02:07:10;;;;;;;0.82;0.60;;;23.10;48.70;;;;;;5095161;28;20039;-55
2022/06/14 02:09:51;;;;;;;3.60;1.00;;;22.80;88.80;;;;;;5094764;28;20020;-55
2022/06/14 02:12:22;;;;;;;2.40;1.05;;;22.80;88.70;;;;;;5094789;28;20020;-55
2022/06/14 02:15:02;;;;;;;1.83;0.80;;;22.90;65.70;;;;;;5094720;28;20056;-55
2022/06/14 02:18:13;;;;;;;3.63;0.90;;;23.00;48.60;;;;;;5094694;28;20016;-56
2022/06/14 02:20:52;;;;;;;2.08;0.85;;;23.10;88.50;;;;;;5094521;28;20028;-56
2022/06/14 02:23:19;;;;;;;1.80;0.80;;;22.20;56.10;;;;;;5094911;28;20484;-59
2022/06/14 02:26:02;;;;;;;3.53;1.00;;;23.30;64.50;;;;;;5094868;28;20382;-59
2022/06/14 02:28:28;;;;;;;2.78;1.00;;;;;;;;;;5094512;28;20060;-59
2022/06/14 02:31:02;;;;;;;4.15;1.20;;;23.00;48.70;;;;;;5094410;28;20424;-59
2022/06/14 02:33:51;;;;;;;2.38;0.63;;;22.80;82.30;;;;;;5094285;28;20016;-59
2022/06/14 02:36:17;;;;;;;1.42;0.85;;;;;;;;;;5094352;28;20100;-59
2022/06/14 02:38:51;;;;;;;4.10;1.10;;;22.80;88.70;;;;;;5094113;28;20611;-59
2022/06/14 02:41:32;;;;;;;3.08;0.80;;;23.30;88.90;;;;;;5094261;28;20024;-59
2022/06/14 02:44:18;;;;;;;2.92;1.23;;;23.00;88.60;;;;;;5093021;28;20020;-56
2022/06/14 02:47:18;;;;;;;1.75;0.82;;;23.00;48.80;;;;;;5094208;28;20103;-55
2022/06/14 02:49:43;;;;;;;3.03;1.20;;;;;;;;;;5089050;28;20048;-55
2022/06/14 02:52:48;;;;;;;2.20;0.82;;;22.90;49.00;;;;;;5093876;28;20028;-54
2022/06/14 02:55:30;;;;;;;3.97;1.17;;;22.80;50.30;;;;;;5071974;28;20047;-56
2022/06/14 02:58:09;;;;;;;2.15;1.02;;;23.10;48.90;;;;;;5093834;28;20107;-55
2022/06/14 03:01:07;;;;;;;2.40;0.90;;;22.90;48.90;;;;;;5093924;28;20020;-55
2022/06/14 03:03:44;;;;;;;1.98;0.75;;;23.30;54.60;;;;;;5088541;28;20128;-55
2022/06/14 03:06:25;;;;;;;3.55;1.10;;;22.90;51.60;;;;;;5093663;28;20474;-55
2022/06/14 03:08:57;;;;;;;2.63;0.93;;;23.00;88.70;;;;;;5094013;28;20035;-56
2022/06/14 03:11:54;;;;;;;2.13;0.75;;;22.70;88.70;;;;;;5093637;28;20054;-55
2022/06/14 03:14:38;;;;;;;1.58;0.93;;;23.00;49.00;;;;;;5093736;28;20024;-54
2022/06/14 03:17:22;;;;;;;2.80;1.23;;;23.10;51.20;;;;;;5093444;28;20031;-52
2022/06/14 03:20:17;;;;;;;1.77;0.88;;;22.80;88.40;;;;;;5093390;28;20402;-59
2022/06/14 03:23:20;;;;;;;3.75;0.85;;;22.90;87.90;;;;;;5093335;28;20038;-59
2022/06/14 03:26:08;;;;;;;3.40;1.00;;;22.90;52.80;;;;;;5093480;28;20083;-59
2022/06/14 03:28:55;;;;;;;2.78;1.00;;;22.80;53.00;;;;;;5093236;28;20039;-58
2022/06/14 03:31:30;;;;;;;2.80;0.73;;;22.60;88.40;;;;;;5093036;28;20023;-59
2022/06/14 03:34:02;;;;;;;2.28;0.95;;;22.90;49.00;;;;;;5093124;28;20478;-59
2022/06/14 03:36:28;;;;;;;1.80;1.00;;;;;;;;;;5093043;28;20452;-59
2022/06/14 03:38:58;;;;;;;2.15;0.80;;;22.70;71.80;;;;;;5093087;28;20073;-59
2022/06/14 03:41:30;;;;;;;1.92;1.08;;;22.70;87.80;;;;;;5093055;28;20028;-59
2022/06/14 03:43:59;;;;;;;2.33;0.70;;;22.70;87.60;;;;;;5093250;28;20020;-59
2022/06/14 03:46:32;;;;;;;2.80;1.17;;;22.60;87.00;;;;;;5093085;28;20031;-59
2022/06/14 03:49:05;;;;;;;2.15;0.85;;;22.70;86.00;;;;;;5092999;28;20031;-59
2022/06/14 03:52:03;;;;;;;2.05;1.00;;;23.10;87.90;;;;;;5092820;28;20390;-59
2022/06/14 03:54:37;;;;;;;2.00;0.90;;;22.90;87.90;;;;;;5070387;28;20127;-59
2022/06/14 03:57:32;;;;;;;2.15;1.08;;;22.80;88.60;;;;;;5092914;28;20028;-55
2022/06/14 04:00:07;;;;;;;1.55;0.90;;;22.70;74.60;;;;;;5092652;28;20054;-54
2022/06/14 04:05:24;;;;;;;1.88;0.93;;;22.80;53.00;;;;;;5092672;28;20055;-55
2022/06/14 04:07:59;;;;;;;1.58;0.85;;;22.30;88.90;;;;;;5092742;28;20068;-55
2022/06/14 04:10:43;;;;;;;3.15;0.60;;;23.00;89.10;;;;;;5092789;28;20057;-53
2022/06/14 04:13:25;;;;;;;3.08;1.00;;;22.80;49.20;;;;;;5092475;28;20073;-55
2022/06/14 04:16:21;;;;;;;1.98;0.85;;;22.80;49.20;;;;;;5092559;28;20036;-59
2022/06/14 04:19:15;;;;;;;2.97;0.88;;;22.90;89.00;;;;;;5092559;28;20435;-59
2022/06/14 04:22:04;;;;;;;2.15;0.82;;;23.30;54.00;;;;;;5089298;28;20055;-58
2022/06/14 04:24:30;;;;;;;1.70;0.95;;;;;;;;;;5092265;28;20478;-59
2022/06/14 04:27:10;;;;;;;1.40;0.70;;;22.90;71.60;;;;;;5092579;28;20027;-59
2022/06/14 04:29:44;;;;;;;3.80;1.15;;;22.70;52.90;;;;;;5092117;28;20020;-59
2022/06/14 04:32:18;;;;;;;1.73;1.08;;;22.70;49.20;;;;;;5092208;28;20055;-55
2022/06/14 04:34:50;;;;;;;1.33;0.85;;;22.60;88.60;;;;;;5092183;28;20421;-59
2022/06/14 04:37:26;;;;;;;1.88;0.63;;;22.60;52.70;;;;;;5092206;28;20023;-58
2022/06/14 04:40:02;;;;;;;2.13;0.93;;;22.80;52.80;;;;;;5091987;28;20450;-59
2022/06/14 04:42:39;;;;;;;1.92;0.95;;;23.00;81.90;;;;;;5092023;28;20486;-59
2022/06/14 04:45:20;;;;;;;2.85;0.98;;;23.00;89.20;;;;;;5092114;28;20032;-58
2022/06/14 04:47:51;;;;;;;1.92;0.80;;;22.70;53.00;;;;;;5092113;28;20027;-58
2022/06/14 04:50:25;;;;;;;2.58;0.80;;;22.10;88.50;;;;;;5092423;28;20022;-59
2022/06/14 04:52:55;;;;;;;2.15;0.65;;;22.90;64.00;;;;;;5092106;28;20107;-59
2022/06/14 04:55:26;;;;;;;;;;;22.60;54.20;;;;;;5092478;28;20133;-58
2022/06/14 04:58:00;;;;;;;2.45;1.00;;;22.60;52.60;;;;;;5091934;28;20411;-59
2022/06/14 05:00:32;;;;;;;3.08;1.08;;;22.60;52.40;;;;;;5091909;28;20028;-59
2022/06/14 05:03:03;;;;;;;2.15;0.80;;;22.40;78.90;;;;;;5073516;28;20043;-59
2022/06/14 05:05:33;;;;;;;1.55;0.80;;;22.70;49.50;;;;;;5091885;28;20118;-59
2022/06/14 05:08:23;;;;;;;1.92;0.90;;;22.50;88.70;;;;;;5094962;28;20521;-58
2022/06/14 05:10:57;;;;;;;1.20;0.70;;;22.70;89.70;;;;;;5096047;28;20024;-55
2022/06/14 05:13:41;;;;;;;1.90;0.90;;;23.00;89.60;;;;;;5096227;28;20026;-55
2022/06/14 05:16:15;;;;;;;1.33;0.70;;;22.90;89.40;;;;;;5095959;28;20114;-56
2022/06/14 05:18:49;;;;;;;2.03;0.70;;;22.50;52.90;;;;;;5095705;28;20031;-55
2022/06/14 05:21:32;;;;;;;1.80;0.90;;;22.80;89.00;;;;;;5078630;28;20023;-56
2022/06/14 05:23:59;;;;;;;3.60;0.85;;;22.40;52.50;;;;;;5095989;28;20035;-55
2022/06/14 05:27:10;;;;;;;1.63;0.63;;;22.70;88.70;;;;;;5095823;28;20039;-54
2022/06/14 05:29:49;;;;;;;2.67;0.70;;;22.60;49.60;;;;;;5056940;28;20040;-56
2022/06/14 05:32:22;;;;;;;1.37;0.73;;;22.60;88.50;;;;;;5095932;28;20028;-56
2022/06/14 05:35:07;;;;;;;1.70;0.80;;;22.60;52.40;;;;;;5095828;28;20345;-55
2022/06/14 05:37:51;;;;;;;2.30;0.93;;;22.50;88.30;;;;;;5095708;28;20546;-56
2022/06/14 05:40:36;;;;;;;2.42;0.70;;;22.70;88.30;;;;;;5095826;28;20376;-57
2022/06/14 05:43:05;;;;;;;1.27;0.68;;;22.90;88.40;;;;;;5095950;28;20028;-57
2022/06/14 05:45:34;;;;;;;1.67;0.60;;;22.40;87.90;;;;;;5095753;28;20031;-57
2022/06/14 05:48:05;;;;;;;0.90;0.60;;;22.30;78.60;;;;;;5095954;28;20116;-58
2022/06/14 05:50:35;;;;;;;2.53;1.05;;;22.70;88.90;;;;;;5095601;28;20628;-56
2022/06/14 05:53:24;;;;;;;2.45;0.90;;;23.00;89.30;;;;;;5095140;28;20044;-56
2022/06/14 05:56:01;;;;;;;0.75;0.60;;;22.70;53.10;;;;;;5095338;28;20032;-57
2022/06/14 05:58:39;;;;;;;1.77;0.85;;;22.60;73.20;;;;;;5094956;28;20024;-57
2022/06/14 06:01:35;;;;;;;1.50;0.88;;;22.70;53.20;;;;;;5095430;28;20028;-56
2022/06/14 06:04:09;;;;;;;3.28;0.90;;;22.40;89.00;;;;;;5094468;28;20067;-56
2022/06/14 06:06:43;;;;;;;1.48;0.80;;;22.50;88.70;;;;;;5095413;28;20024;-59
2022/06/14 06:09:20;;;;;;;1.80;0.68;;;22.90;89.00;;;;;;5095541;28;20433;-59
2022/06/14 06:11:49;;;;;;;2.88;0.90;;;22.60;88.50;;;;;;5095341;28;20386;-59
2022/06/14 06:14:37;;;;;;;1.95;0.70;;;22.90;88.60;;;;;;5095163;28;20035;-59
2022/06/14 06:17:09;;;;;;;3.10;0.80;;;22.50;88.30;;;;;;5095003;28;20032;-59
2022/06/14 06:19:54;;;;;;;1.60;0.90;;;22.30;88.20;;;;;;5095216;28;20039;-59
2022/06/14 06:22:32;;;;;;;1.80;0.63;;;22.60;56.90;;;;;;5095256;28;20390;-59
2022/06/14 06:25:04;;;;;;;1.88;0.80;;;22.60;52.90;;;;;;5094907;28;20403;-56
2022/06/14 06:27:52;;;;;;;3.75;0.80;;;22.70;59.50;;;;;;5095000;28;20119;-57
2022/06/14 06:30:25;;;;;;;2.60;0.80;;;22.60;53.40;;;;;;5094974;28;20100;-56
2022/06/14 06:32:51;;;;;;;2.45;0.95;;;22.70;89.40;;;;;;5094505;28;20093;-57
2022/06/14 06:35:17;;;;;;;1.52;0.82;;;22.80;89.40;;;;;;5094888;28;20024;-57
2022/06/14 06:38:00;;;;;;;1.60;0.57;;;22.70;49.40;;;;;;5093793;28;20503;-56
2022/06/14 06:40:26;;;;;;;1.70;0.60;;;;;;;;;;5094659;28;20043;-57
2022/06/14 06:42:58;;;;;;;2.45;0.93;;;22.60;53.60;;;;;;5094552;28;20028;-57
2022/06/14 06:45:29;;;;;;;2.05;0.73;;;22.70;53.70;;;;;;5094340;28;20024;-57
2022/06/14 06:48:11;;;;;;;5.22;1.08;;;22.60;89.40;;;;;;5094421;28;20020;-57
2022/06/14 06:50:53;;;;;;;2.35;1.02;;;22.70;49.50;;;;;;5094371;28;20020;-58
2022/06/14 06:53:23;;;;;;;4.28;0.82;;;22.70;53.00;;;;;;5094596;28;20016;-56
2022/06/14 06:56:19;;;;;;;2.25;0.93;;;22.50;49.80;;;;;;5094577;28;20410;-56
2022/06/14 06:59:05;;;;;;;3.58;0.70;;;22.60;89.30;;;;;;5094364;28;20032;-57
2022/06/14 07:01:41;;;;;;;4.38;0.75;;;22.60;89.60;;;;;;5094207;28;20486;-56
2022/06/14 07:07:16;;;;;;;3.33;1.00;;;22.60;89.80;;;;;;5094379;28;20038;-56
2022/06/14 07:10:02;;;;;;;3.45;0.68;;;22.40;53.50;;;;;;5094086;28;20028;-55
2022/06/14 07:12:36;;;;;;;3.97;0.60;;;22.70;83.50;;;;;;5093988;28;20107;-57
2022/06/14 07:15:25;;;;;;;1.20;0.70;;;22.30;89.20;;;;;;5093873;28;20462;-57
2022/06/14 07:18:10;;;;;;;3.15;0.47;;;23.00;89.20;;;;;;5046864;28;20063;-60
2022/06/14 07:20:36;;;;;;;1.55;0.65;;;;;;;;;;5093983;28;20495;-55
2022/06/14 07:23:39;;;;;;;1.20;0.60;;;21.20;52.80;;;;;;5093804;28;20089;-57
2022/06/14 07:26:25;;;;;;;2.28;0.77;;;22.90;89.10;;;;;;5093966;28;20020;-55
2022/06/14 07:29:06;;;;;;;1.25;0.50;;;23.00;88.80;;;;;;5093610;28;20418;-57
2022/06/14 07:31:40;;;;;;;1.88;0.88;;;22.20;58.90;;;;;;5093533;28;20040;-57
2022/06/14 07:34:07;;;;;;;2.72;0.95;;;22.30;88.40;;;;;;5093430;28;20077;-57
2022/06/14 07:36:56;;;;;;;0.80;0.55;;;22.80;88.80;;;;;;5093630;28;20039;-57
2022/06/14 07:39:58;;;;;;;1.40;0.60;;;22.60;88.70;;;;;;5093416;28;20379;-57
2022/06/14 07:42:41;;;;;;;1.25;0.63;;;22.50;62.70;;;;;;5075383;28;20040;-57
2022/06/14 07:45:21;;;;;;;2.72;0.55;;;22.70;88.10;;;;;;5093387;28;20032;-57
2022/06/14 07:48:05;;;;;;;1.30;0.60;;;22.60;88.50;;;;;;5093326;28;20023;-57
2022/06/14 07:50:36;;;;;;;1.67;0.47;;;22.40;88.20;;;;;;5093633;28;20056;-58
2022/06/14 07:53:15;;;;;;;1.77;0.70;;;22.80;49.70;;;;;;5093287;28;20036;-57
2022/06/14 07:56:06;;;;;;;3.08;0.70;;;22.70;89.50;;;;;;5093295;28;20024;-56
2022/06/14 07:58:40;;;;;;;2.15;0.70;;;22.70;53.30;;;;;;5092056;28;20134;-57
2022/06/14 08:01:31;;;;;;;0.90;0.45;;;22.70;51.20;;;;;;5093182;28;20095;-57
2022/06/14 08:04:15;;;;;;;2.83;0.60;;;22.80;49.90;;;;;;5092933;28;20052;-57
2022/06/14 08:06:46;;;;;;;1.20;0.60;;;22.80;89.00;;;;;;5093180;28;20024;-56
2022/06/14 08:09:23;;;;;;;1.17;0.65;;;22.90;80.00;;;;;;5092908;28;20027;-57
2022/06/14 08:12:00;;;;;;;1.08;0.40;;;22.20;88.60;;;;;;5092824;28;20496;-57
2022/06/14 08:14:47;;;;;;;1.20;0.60;;;22.70;49.80;;;;;;5093020;28;20382;-60
2022/06/14 08:17:24;;;;;;;1.92;0.35;;;22.50;67.30;;;;;;5092704;28;20031;-60
2022/06/14 08:19:58;;;;;;;1.20;0.50;;;22.30;88.00;;;;;;5092695;28;20043;-60
2022/06/14 08:22:39;;;;;;;1.05;0.57;;;22.80;52.60;;;;;;5092682;28;20027;-60
2022/06/14 08:25:10;;;;;;;1.75;0.43;;;22.70;88.30;;;;;;5092981;28;20383;-60
2022/06/14 08:27:42;;;;;;;5.45;0.80;;;22.50;87.90;;;;;;5092679;28;20038;-60
2022/06/14 08:30:11;;;;;;;1.67;0.60;;;22.70;87.20;;;;;;5092541;28;20073;-60
2022/06/14 08:32:49;;;;;;;1.60;0.50;;;22.50;87.50;;;;;;5092567;28;20077;-60
2022/06/14 08:35:45;;;;;;;1.80;0.60;;;22.50;87.90;;;;;;5092811;28;20039;-60
2022/06/14 08:38:13;;;;;;;2.13;0.50;;;23.00;88.80;;;;;;5092738;28;20038;-60
2022/06/14 08:41:12;;;;;;;1.45;0.68;;;22.60;87.90;;;;;;5092434;28;20115;-60
2022/06/14 08:43:44;;;;;;;1.40;0.68;;;23.00;51.90;;;;;;5092390;28;20486;-60
2022/06/14 08:46:34;;;;;;;1.35;0.60;;;22.50;48.80;;;;;;5092345;28;20124;-60
2022/06/14 08:49:10;;;;;;;2.72;0.80;;;22.70;58.00;;;;;;5092343;28;20039;-60
2022/06/14 08:52:21;;;;;;;2.15;0.63;;;23.00;81.30;;;;;;5092269;28;20012;-57
2022/06/14 08:55:16;;;;;;;1.63;0.70;;;22.70;87.30;;;;;;5092245;28;20509;-57
2022/06/14 08:58:21;;;;;;;1.67;0.80;;;23.10;69.50;;;;;;5092208;28;20112;-57
2022/06/14 09:01:18;;;;;;;2.10;0.63;;;23.30;87.50;;;;;;5092167;28;20394;-57
2022/06/14 09:03:56;;;;;;;1.83;0.70;;;23.10;81.20;;;;;;5091902;28;20438;-57
2022/06/14 09:06:40;;;;;;;2.13;0.68;;;23.00;48.80;;;;;;5092163;28;20040;-57
2022/06/14 09:09:23;;;;;;;1.38;0.50;;;23.10;50.20;;;;;;5092098;28;20032;-60
2022/06/14 09:12:14;;;;;;;1.52;0.70;;;23.40;86.90;;;;;;5092493;28;20489;-60
2022/06/14 09:15:16;;;;;;;2.70;0.55;;;23.00;87.00;;;;;;5091034;28;20036;-60
2022/06/14 09:18:01;;;;;;;1.00;0.50;;;23.20;48.70;;;;;;5092042;28;20024;-60
2022/06/14 09:20:40;;;;;;;0.60;0.47;;;23.40;87.70;;;;;;5092127;28;20040;-60
2022/06/14 09:23:24;;;;;;;1.13;0.60;;;23.70;69.60;;;;;;5092117;28;20174;-60
2022/06/14 09:26:07;;;;;;;1.70;0.68;;;23.50;64.10;;;;;;5092034;28;20035;-60
2022/06/14 09:28:45;;;;;;;1.67;0.73;;;23.30;87.40;;;;;;5092096;28;20032;-57
2022/06/14 09:31:38;;;;;;;0.95;0.30;;;23.60;87.60;;;;;;5073797;28;20467;-57
2022/06/14 09:34:40;;;;;;;0.70;0.55;;;23.60;48.90;;;;;;5091903;28;20429;-57
2022/06/14 09:37:27;;;;;;;1.05;0.60;;;23.40;78.20;;;;;;5091885;28;20044;-57
2022/06/14 09:40:16;;;;;;;2.40;0.80;;;23.60;87.40;;;;;;5091808;28;20104;-57
2022/06/14 09:42:56;;;;;;;2.00;0.50;;;23.60;69.40;;;;;;5091849;28;20039;-57
2022/06/14 09:45:34;;;;;;;0.88;0.50;;;22.90;87.10;;;;;;5091905;28;20035;-57
2022/06/14 09:48:29;;;;;;;1.13;0.50;;;23.80;51.90;;;;;;5091759;28;20107;-57
2022/06/14 09:51:23;;;;;;;1.48;0.55;;;24.00;87.80;;;;;;5048695;28;20044;-57
2022/06/14 09:54:21;;;;;;;1.80;0.60;;;23.60;87.90;;;;;;5094339;28;20052;-58
2022/06/14 09:57:21;;;;;;;2.50;0.73;;;23.50;48.50;;;;;;5008095;28;20044;-57
2022/06/14 10:00:04;;;;;;;0.65;0.50;;;23.60;88.40;;;;;;5095281;28;20138;-58
2022/06/14 10:03:07;;;;;;;1.33;0.60;;;23.60;48.40;;;;;;5095064;28;20527;-57
2022/06/14 10:06:23;;;;;;;1.55;0.50;;;23.50;87.20;;;;;;5095362;28;20456;-60
2022/06/14 10:08:57;;;;;;;2.00;0.60;;;23.90;87.30;;;;;;5052551;28;20055;-60
2022/06/14 10:11:53;;;;;;;1.35;0.60;;;23.50;87.00;;;;;;5095256;28;20451;-60
2022/06/14 10:14:40;;;;;;;1.00;0.30;;;23.50;86.90;;;;;;5095330;28;20048;-59
2022/06/14 10:17:49;;;;;;;1.40;0.50;;;23.80;48.10;;;;;;5095013;28;20032;-60
2022/06/14 10:20:18;;;;;;;0.80;0.55;;;23.70;86.90;;;;;;5048239;28;20406;-60
2022/06/14 10:23:01;;;;;;;0.87;0.37;;;23.70;48.80;;;;;;5095007;28;20027;-57
2022/06/14 10:29:04;;;;;;;0.82;0.47;;;23.70;86.50;;;;;;5095121;28;20448;-57
2022/06/14 10:31:50;;;;;;;0.80;0.40;;;23.70;72.30;;;;;;5081236;28;20158;-57
2022/06/14 10:34:54;;;;;;;1.10;0.50;;;24.20;86.70;;;;;;5094751;28;20111;-57
2022/06/14 10:37:33;;;;;;;0.60;0.47;;;24.00;47.80;;;;;;5094671;28;20039;-57
2022/06/14 10:40:20;;;;;;;1.25;0.70;;;24.70;87.30;;;;;;5094570;28;20043;-57
2022/06/14 10:43:21;;;;;;;0.88;0.38;;;23.80;86.80;;;;;;5094756;28;20030;-60
2022/06/14 10:45:59;;;;;;;0.70;0.50;;;24.60;57.40;;;;;;5077282;28;20040;-60
2022/06/14 10:48:33;;;;;;;1.75;0.50;;;23.80;86.40;;;;;;5094505;28;20112;-60
2022/06/14 10:51:23;;;;;;;0.63;0.43;;;24.20;86.40;;;;;;5094643;28;20024;-60
2022/06/14 10:54:04;;;;;;;0.60;0.32;;;24.50;86.70;;;;;;5094613;28;20035;-61
2022/06/14 10:56:38;;;;;;;;;;;24.10;48.10;;;;;;5094795;28;20027;-60
2022/06/14 10:59:31;;;;;;;1.05;0.40;;;24.40;50.40;;;;;;5094425;28;19912;-60
2022/06/14 11:02:35;;;;;;;0.88;0.47;;;23.70;85.70;;;;;;5093113;28;20048;-60
2022/06/14 11:05:19;;;;;;;1.67;0.65;;;24.30;47.50;;;;;;4991245;28;20056;-60
2022/06/14 11:07:48;;;;;;;0.82;0.45;;;24.10;86.00;;;;;;5085553;28;20040;-60
2022/06/14 11:10:35;;;;;;;0.57;0.40;;;24.50;50.70;;;;;;5094165;28;20377;-60
2022/06/14 11:13:11;;;;;;;0.98;0.35;;;24.30;86.40;;;;;;5093796;28;20043;-60
2022/06/14 11:15:46;;;;;;;0.88;0.40;;;24.20;86.00;;;;;;5094137;28;20024;-60
2022/06/14 11:18:24;;;;;;;0.80;0.40;;;24.60;47.50;;;;;;5094017;28;20023;-59
2022/06/14 11:21:27;;;;;;;0.85;0.40;;;24.30;47.30;;;;;;5093898;28;20059;-60
2022/06/14 11:24:10;;;;;;;0.82;0.47;;;24.40;47.40;;;;;;5093661;28;20116;-60
2022/06/14 11:26:35;;;;;;;1.50;0.60;;;23.90;85.60;;;;;;5093605;28;20115;-60
2022/06/14 11:29:19;;;;;;;1.58;0.70;;;24.60;85.90;;;;;;5093637;28;20474;-60
2022/06/14 11:31:49;;;;;;;0.60;0.40;;;24.40;85.70;;;;;;5093653;28;20063;-60
2022/06/14 11:34:21;;;;;;;0.77;0.30;;;24.00;86.50;;;;;;5093769;28;20104;-60
2022/06/14 11:37:19;;;;;;;1.65;0.40;;;24.40;76.00;;;;;;5093744;28;20036;-57
2022/06/14 11:39:53;;;;;;;0.93;0.52;;;24.40;85.90;;;;;;5093364;28;20040;-57
2022/06/14 11:42:50;;;;;;;2.03;0.68;;;24.50;47.20;;;;;;5093554;28;20383;-57
2022/06/14 11:45:57;;;;;;;1.25;0.50;;;24.20;76.30;;;;;;5093228;28;20023;-57
2022/06/14 11:48:29;;;;;;;0.98;0.60;;;24.40;47.30;;;;;;5093313;28;20020;-57
2022/06/14 11:51:05;;;;;;;0.75;0.70;;;24.40;50.10;;;;;;5093171;28;20070;-57
2022/06/14 11:53:58;;;;;;;0.73;0.60;;;24.50;85.80;;;;;;5093092;28;20107;-57
2022/06/14 11:56:30;;;;;;;0.70;0.60;;;24.30;86.20;;;;;;5093040;28;20038;-60
2022/06/14 11:59:23;;;;;;;0.60;0.50;;;27.70;52.50;;;;;;5092903;28;20028;-60
2022/06/14 12:02:26;;;;;;;0.95;0.40;;;24.90;86.50;;;;;;5092602;28;20095;-60
2022/06/14 12:05:09;;;;;;;1.30;0.60;;;24.10;85.50;;;;;;5092852;28;20028;-61
2022/06/14 12:07:40;;;;;;;0.90;0.50;;;24.50;47.30;;;;;;5092866;28;20028;-60
2022/06/14 12:10:20;;;;;;;1.25;0.43;;;24.40;47.20;;;;;;5092733;28;20050;-60
2022/06/14 12:12:46;;;;;;;;;;;24.40;47.80;;;;;;5093252;28;20115;-57
2022/06/14 12:15:30;;;;;;;0.95;0.47;;;24.70;86.70;;;;;;5092550;28;19939;-57
2022/06/14 12:18:01;;;;;;;0.73;0.52;;;24.50;50.50;;;;;;5092585;28;20024;-57
2022/06/14 12:20:30;;;;;;;1.40;0.60;;;24.70;86.60;;;;;;5092533;28;20039;-57
2022/06/14 12:22:56;;;;;;;2.03;0.77;;;;;;;;;;5092566;28;20024;-58
2022/06/14 12:28:12;;;;;;;1.38;0.70;;;24.10;85.70;;;;;;5092522;28;20067;-57
2022/06/14 12:30:41;;;;;;;0.80;0.60;;;24.50;48.60;;;;;;5092436;28;20112;-57
2022/06/14 12:33:29;;;;;;;0.85;0.63;;;24.10;85.80;;;;;;5092668;28;20016;-60
2022/06/14 12:36:19;;;;;;;1.55;0.60;;;24.20;86.20;;;;;;5092618;28;20381;-60
2022/06/14 12:38:46;;;;;;;;;;;24.40;47.90;;;;;;5092867;28;20394;-60
2022/06/14 12:41:27;;;;;;;1.50;0.60;;;24.10;47.20;;;;;;5092258;28;19969;-60
2022/06/14 12:44:12;;;;;;;0.40;0.40;;;24.70;86.40;;;;;;5092095;28;20103;-60
2022/06/14 12:46:43;;;;;;;1.23;0.70;;;24.80;85.90;;;;;;5092181;28;20035;-60
2022/06/14 12:49:29;;;;;;;1.55;0.75;;;24.40;85.70;;;;;;5092413;28;20055;-57
2022/06/14 12:52:09;;;;;;;1.70;0.60;;;24.60;86.00;;;;;;5092436;28;20099;-58
2022/06/14 12:54:58;;;;;;;0.40;0.40;;;23.90;85.60;;;;;;5092298;28;20105;-57
2022/06/14 12:57:38;;;;;;;1.25;0.63;;;24.10;85.70;;;;;;5092539;28;20383;-57
2022/06/14 13:00:31;;;;;;;1.35;0.65;;;24.70;71.00;;;;;;5092240;28;20065;-57
2022/06/14 13:03:24;;;;;;;1.92;0.40;;;24.20;86.00;;;;;;5091907;28;20051;-57
2022/06/14 13:05:56;;;;;;;1.77;0.70;;;24.50;50.80;;;;;;5040660;28;20040;-57
2022/06/14 13:08:43;;;;;;;1.13;0.50;;;24.20;53.40;;;;;;5092254;28;20177;-60
2022/06/14 13:11:22;;;;;;;1.60;0.70;;;24.50;47.60;;;;;;5092226;28;20439;-60
2022/06/14 13:14:09;;;;;;;1.00;0.50;;;24.20;70.50;;;;;;5092159;28;20024;-60
2022/06/14 13:16:54;;;;;;;0.50;0.50;;;24.30;86.00;;;;;;5092291;28;20028;-60
2022/06/14 13:19:43;;;;;;;1.27;0.50;;;24.40;47.60;;;;;;5092005;28;20036;-60
2022/06/14 13:22:35;;;;;;;1.13;0.53;;;24.20;86.80;;;;;;5092354;28;20034;-60
2022/06/14 13:25:36;;;;;;;0.82;0.45;;;24.40;85.20;;;;;;5092074;28;20109;-60
2022/06/14 13:28:05;;;;;;;0.63;0.63;;;24.30;87.10;;;;;;5093496;28;20032;-60
2022/06/14 13:30:45;;;;;;;0.98;0.60;;;23.90;85.00;;;;;;5095977;28;20040;-60
2022/06/14 13:33:30;;;;;;;0.50;0.35;;;24.30;86.40;;;;;;5096005;28;20027;-60
2022/06/14 13:36:17;;;;;;;1.27;0.60;;;24.40;85.90;;;;;;5095891;28;20061;-60
2022/06/14 13:38:51;;;;;;;0.57;0.40;;;24.30;86.20;;;;;;5096051;28;20111;-60
2022/06/14 13:41:40;;;;;;;1.33;0.60;;;24.50;50.70;;;;;;5095734;28;20024;-60
2022/06/14 13:44:18;;;;;;;0.57;0.40;;;24.10;86.20;;;;;;5095716;28;20028;-60
2022/06/14 13:47:01;;;;;;;0.55;0.45;;;23.40;47.30;;;;;;5095646;28;20031;-60
2022/06/14 13:49:33;;;;;;;0.98;0.30;;;24.30;50.60;;;;;;5095813;28;20039;-60
2022/06/14 13:52:02;;;;;;;0.63;0.57;;;24.40;47.80;;;;;;5095501;28;20028;-60
2022/06/14 13:54:55;;;;;;;1.65;0.52;;;24.40;47.80;;;;;;5095684;28;20366;-60
2022/06/14 13:57:33;;;;;;;1.17;0.63;;;24.30;85.80;;;;;;5095457;28;20024;-60
2022/06/14 14:00:25;;;;;;;1.15;0.50;;;23.90;62.60;;;;;;5095633;28;20054;-60
2022/06/14 14:03:29;;;;;;;1.48;0.50;;;24.40;53.70;;;;;;5077233;28;20058;-56
2022/06/14 14:06:31;;;;;;;1.55;0.85;;;24.30;86.40;;;;;;5095563;28;20023;-60
2022/06/14 14:09:20;;;;;;;0.65;0.60;;;24.20;86.80;;;;;;5095192;28;20024;-60
2022/06/14 14:12:00;;;;;;;1.30;0.55;;;24.40;47.90;;;;;;5095199;28;20065;-60
2022/06/14 14:14:41;;;;;;;1.70;0.55;;;24.80;85.60;;;;;;5095238;28;20040;-60
2022/06/14 14:17:31;;;;;;;1.42;0.50;;;24.30;83.60;;;;;;5095146;28;20077;-60
2022/06/14 14:20:06;;;;;;;0.82;0.60;;;24.50;86.70;;;;;;5094964;28;20517;-60